»·PEaware :: N377AM KSAC-KLGB

N377AM :: KSAC-KLGB

FLIGHT INFORMATION

Flight Status: Arrived
Operator: Privately registered:
United States
More flights under this callsign
Pilot: Andrew M. (139)
Aircraft: SOCATA TBM-900
(TBM9)
More flights by this aircraft type
Origin: KSAC Sacramento Executive
United States
Destination: KLGB Long Beach
United States
More flights between these airports :: More routes between these airports
Route: +REBRG PCIFC1
File this flight plan on PilotEdge
Remarks:
Altitude:
(Current/Filed)
31,000ft
Speed:
(Current/Filed)
300kts
Departed: 07-Feb-19 06:10 PM
Arrived: 07-Feb-19 07:48 PM
Distance/Time
Traveled:
325nm/1:37
Distance/Time
To Go:
Arrived

Flight Plot

Page will automatically refresh every two minutes.

Flight plan parsing failed; only flown route is shown


Map Options




Map Legend


Flown Route
Filed Route
Departure Airport
Arrival Airport
Navaid (VOR, NDB)
Fix

Horizontal Profiles

Position Reports

Time Latitude Longitude Heading Altitude Ground
Speed
07-Feb-19 17:55 38.513069 -121.497848 8 19ft 0kts
07-Feb-19 17:55 38.513069 -121.497848 8 19ft 0kts
07-Feb-19 17:57 38.513069 -121.497848 8 19ft 0kts
07-Feb-19 17:58 38.513069 -121.497848 8 19ft 0kts
07-Feb-19 17:58 38.513069 -121.497848 8 19ft 0kts
07-Feb-19 17:59 38.513069 -121.497848 8 19ft 0kts
07-Feb-19 18:00 38.513883 -121.496776 109 19ft 7kts
07-Feb-19 18:02 38.514248 -121.494893 33 19ft 9kts
07-Feb-19 18:02 38.515416 -121.493930 34 20ft 9kts
07-Feb-19 18:03 38.518036 -121.491742 34 22ft 10kts
07-Feb-19 18:04 38.519201 -121.490413 104 23ft 0kts
07-Feb-19 18:05 38.519201 -121.490413 104 23ft 0kts
07-Feb-19 18:06 38.519201 -121.490413 104 23ft 0kts
07-Feb-19 18:07 38.519201 -121.490413 104 23ft 0kts
07-Feb-19 18:08 38.518979 -121.489553 135 23ft 7kts
07-Feb-19 18:09 38.510994 -121.495861 212 136ft 111kts
07-Feb-19 18:10 38.487504 -121.488690 104 1990ft 134kts
07-Feb-19 18:11 38.477670 -121.437374 103 2608ft 145kts
07-Feb-19 18:12 38.466919 -121.390991 114 5034ft 136kts
07-Feb-19 18:13 38.452223 -121.346792 114 7436ft 141kts
07-Feb-19 18:14 38.437253 -121.301189 115 9611ft 146kts
07-Feb-19 18:15 38.421217 -121.252613 117 11513ft 158kts
07-Feb-19 18:16 38.392318 -121.213942 153 13443ft 157kts
07-Feb-19 18:17 38.355658 -121.184327 161 15178ft 161kts
07-Feb-19 18:18 38.315326 -121.158292 159 16910ft 168kts
07-Feb-19 18:19 38.274352 -121.130462 159 18516ft 171kts
07-Feb-19 18:20 38.230780 -121.100875 158 19304ft 201kts
07-Feb-19 18:21 38.177692 -121.064520 157 19423ft 216kts
07-Feb-19 18:22 38.127570 -121.030298 158 21249ft 198kts
07-Feb-19 18:23 38.081160 -120.998707 159 23099ft 192kts
07-Feb-19 18:24 38.034161 -120.966785 159 25081ft 199kts
07-Feb-19 18:25 37.985522 -120.933725 160 26957ft 205kts
07-Feb-19 18:26 37.934899 -120.899479 160 28462ft 214kts
07-Feb-19 18:27 37.887704 -120.867579 161 29700ft 218kts
07-Feb-19 18:28 37.835978 -120.832632 161 30849ft 222kts
07-Feb-19 18:29 37.781511 -120.795966 160 31306ft 251kts
07-Feb-19 18:30 37.713766 -120.750197 159 31300ft 279kts
07-Feb-19 18:31 37.644724 -120.703765 159 31288ft 285kts
07-Feb-19 18:32 37.575744 -120.657501 158 31287ft 287kts
07-Feb-19 18:33 37.507032 -120.611431 159 31284ft 285kts
07-Feb-19 18:34 37.438577 -120.565767 159 31286ft 284kts
07-Feb-19 18:35 37.368503 -120.519097 159 31289ft 290kts
07-Feb-19 18:36 37.297681 -120.472050 159 31290ft 292kts
07-Feb-19 18:37 37.226751 -120.425018 159 31287ft 292kts
07-Feb-19 18:38 37.156663 -120.378611 159 31287ft 293kts
07-Feb-19 18:39 37.090136 -120.334653 160 31278ft 292kts
07-Feb-19 18:40 37.028841 -120.294234 160 31279ft 292kts
07-Feb-19 18:41 36.957606 -120.247373 160 31280ft 292kts
07-Feb-19 18:42 36.891612 -120.204029 160 31282ft 293kts
07-Feb-19 18:43 36.818307 -120.155879 160 31283ft 293kts
07-Feb-19 18:44 36.746700 -120.109060 160 31283ft 294kts
07-Feb-19 18:45 36.675473 -120.062690 160 31279ft 290kts
07-Feb-19 18:46 36.605389 -120.017043 160 31282ft 287kts
07-Feb-19 18:47 36.536008 -119.971923 160 31281ft 286kts
07-Feb-19 18:48 36.467076 -119.927226 160 31284ft 285kts
07-Feb-19 18:49 36.398495 -119.882831 160 31284ft 285kts
07-Feb-19 18:50 36.330259 -119.838748 160 31284ft 285kts
07-Feb-19 18:51 36.261317 -119.794299 160 31284ft 285kts
07-Feb-19 18:52 36.191709 -119.749512 160 31285ft 285kts
07-Feb-19 18:53 36.122402 -119.704915 160 31286ft 288kts
07-Feb-19 18:54 36.052101 -119.659999 160 31284ft 287kts
07-Feb-19 18:55 35.981780 -119.621268 181 31273ft 270kts
07-Feb-19 18:56 35.910802 -119.629420 196 31274ft 255kts
07-Feb-19 18:57 35.844912 -119.642588 196 31271ft 253kts
07-Feb-19 18:58 35.776383 -119.656507 197 31269ft 253kts
07-Feb-19 18:59 35.707641 -119.670458 197 31268ft 252kts
07-Feb-19 19:00 35.638027 -119.668647 161 31275ft 277kts
07-Feb-19 19:01 35.575699 -119.610603 162 31262ft 278kts
07-Feb-19 19:02 35.507307 -119.575572 165 31269ft 277kts
07-Feb-19 19:03 35.438135 -119.539409 165 31265ft 277kts
07-Feb-19 19:04 35.369098 -119.503331 165 31263ft 282kts
07-Feb-19 19:05 35.299307 -119.466928 165 31260ft 284kts
07-Feb-19 19:06 35.227277 -119.429436 165 31261ft 285kts
07-Feb-19 19:07 35.155427 -119.392107 165 31261ft 286kts
07-Feb-19 19:08 35.083499 -119.354809 165 31261ft 286kts
07-Feb-19 19:09 35.018232 -119.321028 165 31251ft 285kts
07-Feb-19 19:10 34.949140 -119.285333 165 31250ft 284kts
07-Feb-19 19:11 34.883117 -119.251277 165 30482ft 286kts
07-Feb-19 19:12 34.811884 -119.214574 166 30027ft 267kts
07-Feb-19 19:13 34.744105 -119.179781 166 30027ft 267kts
07-Feb-19 19:14 34.674807 -119.136618 161 30032ft 273kts
07-Feb-19 19:15 34.608347 -119.094405 161 30035ft 275kts
07-Feb-19 19:16 34.541819 -119.051737 160 29524ft 281kts
07-Feb-19 19:17 34.477434 -119.010110 160 28127ft 278kts
07-Feb-19 19:18 34.411593 -118.966870 159 26893ft 269kts
07-Feb-19 19:19 34.346996 -118.923984 158 25560ft 266kts
07-Feb-19 19:20 34.282360 -118.881204 158 24150ft 267kts
07-Feb-19 19:21 34.216450 -118.840924 168 22840ft 261kts
07-Feb-19 19:22 34.148641 -118.814100 168 21597ft 256kts
07-Feb-19 19:23 34.080223 -118.787001 167 20219ft 263kts
07-Feb-19 19:24 34.011673 -118.760491 167 19049ft 258kts
07-Feb-19 19:25 33.943031 -118.733886 166 17656ft 260kts
07-Feb-19 19:26 33.875245 -118.707672 166 16429ft 251kts
07-Feb-19 19:27 33.808738 -118.682021 165 15117ft 252kts
07-Feb-19 19:28 33.741452 -118.656288 166 13761ft 251kts
07-Feb-19 19:29 33.674939 -118.632762 166 12552ft 250kts
07-Feb-19 19:30 33.608090 -118.607895 155 11084ft 252kts
07-Feb-19 19:31 33.565040 -118.547175 121 9659ft 240kts
07-Feb-19 19:32 33.529780 -118.480836 122 8267ft 234kts
07-Feb-19 19:33 33.520116 -118.406751 91 7178ft 225kts
07-Feb-19 19:34 33.518525 -118.336197 86 5973ft 214kts
07-Feb-19 19:35 33.538226 -118.269505 69 4842ft 214kts
07-Feb-19 19:36 33.559590 -118.202717 68 3987ft 203kts
07-Feb-19 19:37 33.578946 -118.142314 68 3994ft 188kts
07-Feb-19 19:38 33.612840 -118.098578 41 3992ft 174kts
07-Feb-19 19:39 33.645872 -118.070926 8 3583ft 128kts
07-Feb-19 19:40 33.678659 -118.073395 353 2683ft 112kts
07-Feb-19 19:41 33.708409 -118.078778 351 1958ft 101kts
07-Feb-19 19:42 33.733502 -118.085273 347 1774ft 83kts
07-Feb-19 19:43 33.756474 -118.091459 346 1422ft 85kts
07-Feb-19 19:44 33.779476 -118.097480 348 1138ft 84kts
07-Feb-19 19:45 33.792772 -118.118799 302 722ft 85kts
07-Feb-19 19:47 33.808235 -118.139859 313 160ft 79kts
07-Feb-19 19:48 33.819485 -118.153357 317 42ft 18kts
07-Feb-19 19:49 33.821661 -118.153945 94 46ft 14kts
07-Feb-19 19:50 33.821648 -118.149866 90 42ft 9kts
07-Feb-19 19:51 33.821316 -118.146957 165 38ft 8kts
07-Feb-19 19:52 33.818722 -118.146969 181 37ft 5kts
07-Feb-19 19:53 33.815195 -118.146354 133 33ft 15kts
07-Feb-19 19:54 33.815426 -118.143841 63 30ft 0kts
07-Feb-19 19:55 33.815426 -118.143841 63 30ft 0kts
07-Feb-19 19:56 33.815426 -118.143841 63 30ft 0kts
07-Feb-19 19:57 33.815426 -118.143841 63 30ft 0kts
07-Feb-19 19:58 33.815426 -118.143841 63 30ft 0kts
07-Feb-19 19:59 33.815426 -118.143841 63 30ft 0kts
07-Feb-19 20:00 33.815426 -118.143841 63 30ft 0kts
07-Feb-19 20:01 33.815426 -118.143841 63 30ft 0kts

Navigation Log

Ident Type
Flight plan parsing failed, navigation log unavailable